createdAt,value
2023-02-04T00:00:07.704Z,1.17
2023-02-04T00:02:34.893Z,1.10
2023-02-04T00:05:01.655Z,1.30
2023-02-04T00:07:28.344Z,1.10
2023-02-04T00:09:55.106Z,1.20
2023-02-04T00:12:21.868Z,1.60
2023-02-04T00:14:48.609Z,1.30
2023-02-04T00:17:15.403Z,1.30
2023-02-04T00:19:42.480Z,1.20
2023-02-04T00:22:09.831Z,1.35
2023-02-04T00:24:37.765Z,1.30
2023-02-04T00:27:06.014Z,1.10
2023-02-04T00:29:32.723Z,1.20
2023-02-04T00:31:59.644Z,0.75
2023-02-04T00:34:26.585Z,1.00
2023-02-04T00:36:53.268Z,1.13
2023-02-04T00:39:19.969Z,1.05
2023-02-04T00:41:46.699Z,1.20
2023-02-04T00:44:14.231Z,1.30
2023-02-04T00:46:42.632Z,1.33
2023-02-04T00:49:10.725Z,1.17
2023-02-04T00:51:39.576Z,1.50
2023-02-04T00:54:07.484Z,1.10
2023-02-04T00:56:34.706Z,0.95
2023-02-04T00:59:01.556Z,1.02
2023-02-04T01:01:28.341Z,1.13
2023-02-04T01:03:55.371Z,1.10
2023-02-04T01:06:22.075Z,1.20
2023-02-04T01:08:48.780Z,1.02
2023-02-04T01:11:15.838Z,1.00
2023-02-04T01:13:42.842Z,0.95
2023-02-04T01:16:09.954Z,1.40
2023-02-04T01:18:36.996Z,1.25
2023-02-04T01:21:03.734Z,1.50
2023-02-04T01:23:30.457Z,1.52
2023-02-04T01:25:57.433Z,1.23
2023-02-04T01:28:24.389Z,1.40
2023-02-04T01:30:51.089Z,1.20
2023-02-04T01:33:17.773Z,1.05
2023-02-04T01:35:44.461Z,1.45
2023-02-04T01:38:11.131Z,1.30
2023-02-04T01:40:37.860Z,1.27
2023-02-04T01:43:05.003Z,1.30
2023-02-04T01:45:34.385Z,1.20
2023-02-04T01:48:03.958Z,1.30
2023-02-04T01:50:31.397Z,1.30
2023-02-04T01:52:58.589Z,1.33
2023-02-04T01:55:30.045Z,1.27
2023-02-04T01:57:58.724Z,1.45
2023-02-04T02:00:32.059Z,1.40
2023-02-04T02:02:59.959Z,1.27
2023-02-04T02:05:38.890Z,1.02
2023-02-04T02:08:07.437Z,1.10
2023-02-04T02:10:35.504Z,1.27
2023-02-04T02:13:02.339Z,1.40
2023-02-04T02:15:29.026Z,1.40
2023-02-04T02:17:55.936Z,0.90
2023-02-04T02:20:25.028Z,0.70
2023-02-04T02:23:13.618Z,1.05
2023-02-04T02:25:40.709Z,0.82
2023-02-04T02:28:12.344Z,1.10
2023-02-04T02:30:39.861Z,0.88
2023-02-04T02:33:07.806Z,0.85
2023-02-04T02:35:34.841Z,0.90
2023-02-04T02:38:01.621Z,0.85
2023-02-04T02:40:28.809Z,1.23
2023-02-04T02:42:55.748Z,1.77
2023-02-04T02:45:26.397Z,1.15
2023-02-04T02:47:53.942Z,1.15
2023-02-04T02:50:24.534Z,1.10
2023-02-04T02:52:52.347Z,1.02
2023-02-04T02:55:21.420Z,1.30
2023-02-04T02:57:49.391Z,1.30
2023-02-04T03:00:27.896Z,1.30
2023-02-04T03:03:10.965Z,1.20
2023-02-04T03:05:43.779Z,1.13
2023-02-04T03:08:13.298Z,1.20
2023-02-04T03:10:41.235Z,0.85
2023-02-04T03:13:08.465Z,1.20
2023-02-04T03:15:35.587Z,0.93
2023-02-04T03:18:02.813Z,1.05
2023-02-04T03:20:31.964Z,1.50
2023-02-04T03:22:59.146Z,1.20
2023-02-04T03:25:28.835Z,1.60
2023-02-04T03:27:58.395Z,1.40
2023-02-04T03:30:26.013Z,1.20
2023-02-04T03:32:53.254Z,0.90
2023-02-04T03:35:20.053Z,1.00
2023-02-04T03:37:46.653Z,1.10
2023-02-04T03:40:13.587Z,1.20
2023-02-04T03:42:40.094Z,1.30
2023-02-04T03:45:06.963Z,1.02
2023-02-04T03:47:33.469Z,1.30
2023-02-04T03:50:00.144Z,1.10
2023-02-04T03:52:26.670Z,1.25
2023-02-04T03:54:53.185Z,1.83
2023-02-04T03:57:19.694Z,1.08
2023-02-04T03:59:46.153Z,1.05
2023-02-04T04:02:12.620Z,1.25
2023-02-04T04:04:39.271Z,1.10
2023-02-04T04:07:06.129Z,1.10
2023-02-04T04:09:32.605Z,1.05
2023-02-04T04:11:59.114Z,1.25
2023-02-04T04:14:25.645Z,1.38
2023-02-04T04:16:52.132Z,0.90
2023-02-04T04:19:18.616Z,1.20
2023-02-04T04:21:45.088Z,1.30
2023-02-04T04:24:11.597Z,1.10
2023-02-04T04:26:38.130Z,1.30
2023-02-04T04:29:04.609Z,1.25
2023-02-04T04:31:31.185Z,1.30
2023-02-04T04:33:57.872Z,1.35
2023-02-04T04:36:24.395Z,1.13
2023-02-04T04:38:50.887Z,1.30
2023-02-04T04:41:17.345Z,1.20
2023-02-04T04:43:43.827Z,1.40
2023-02-04T04:46:10.316Z,1.33
2023-02-04T04:48:36.803Z,1.40
2023-02-04T04:51:03.460Z,1.08
2023-02-04T04:53:30.174Z,1.50
2023-02-04T04:55:56.662Z,1.50
2023-02-04T04:58:23.196Z,2.03
2023-02-04T05:00:49.712Z,1.63
2023-02-04T05:03:16.319Z,1.48
2023-02-04T05:05:42.862Z,1.70
2023-02-04T05:08:14.025Z,1.52
2023-02-04T05:10:40.716Z,1.60
2023-02-04T05:13:07.675Z,1.40
2023-02-04T05:15:34.776Z,1.30
2023-02-04T05:18:01.769Z,1.40
2023-02-04T05:20:28.329Z,1.45
2023-02-04T05:22:55.990Z,1.33
2023-02-04T05:25:23.276Z,1.42
2023-02-04T05:27:50.056Z,1.25
2023-02-04T05:30:16.980Z,1.40
2023-02-04T05:32:43.730Z,1.50
2023-02-04T05:35:10.453Z,1.60
2023-02-04T05:37:37.159Z,1.42
2023-02-04T05:40:05.162Z,1.20
2023-02-04T05:42:32.218Z,1.20
2023-02-04T05:44:58.890Z,1.23
2023-02-04T05:47:25.605Z,1.33
2023-02-04T05:49:54.658Z,1.60
2023-02-04T05:52:21.328Z,1.60
2023-02-04T05:54:48.074Z,1.85
2023-02-04T05:57:14.770Z,2.00
2023-02-04T05:59:41.454Z,1.90
2023-02-04T06:02:08.152Z,1.90
2023-02-04T06:04:34.938Z,1.80
2023-02-04T06:07:01.826Z,1.65
2023-02-04T06:09:28.487Z,2.05
2023-02-04T06:11:55.168Z,2.20
2023-02-04T06:14:21.838Z,1.63
2023-02-04T06:16:48.543Z,1.92
2023-02-04T06:19:15.255Z,1.77
2023-02-04T06:21:42.029Z,2.08
2023-02-04T06:24:08.728Z,1.70
2023-02-04T06:26:35.564Z,1.52
2023-02-04T06:29:02.370Z,1.65
2023-02-04T06:31:29.180Z,1.55
2023-02-04T06:33:55.950Z,1.65
2023-02-04T06:36:22.686Z,1.63
2023-02-04T06:38:49.400Z,1.80
2023-02-04T06:41:16.085Z,1.35
2023-02-04T06:43:42.911Z,1.33
2023-02-04T06:46:09.687Z,1.60
2023-02-04T06:48:36.407Z,1.33
2023-02-04T06:51:03.131Z,1.67
2023-02-04T06:53:29.809Z,1.48
2023-02-04T06:55:56.509Z,1.67
2023-02-04T06:58:23.242Z,1.80
2023-02-04T07:00:49.930Z,1.60
2023-02-04T07:03:16.677Z,1.50
2023-02-04T07:05:43.472Z,1.90
2023-02-04T07:08:10.219Z,1.52
2023-02-04T07:10:37.070Z,1.45
2023-02-04T07:13:03.754Z,1.33
2023-02-04T07:15:31.487Z,1.73
2023-02-04T07:17:58.247Z,1.60
2023-02-04T07:20:24.916Z,1.70
2023-02-04T07:22:51.605Z,1.50
2023-02-04T07:25:18.260Z,1.63
2023-02-04T07:27:45.092Z,1.48
2023-02-04T07:30:12.162Z,1.58
2023-02-04T07:32:38.854Z,1.70
2023-02-04T07:35:05.974Z,1.65
2023-02-04T07:37:32.890Z,1.90
2023-02-04T07:39:59.845Z,1.88
2023-02-04T07:42:26.568Z,1.65
2023-02-04T07:44:53.255Z,2.00
2023-02-04T07:47:20.003Z,1.90
2023-02-04T07:49:46.698Z,1.88
2023-02-04T07:52:14.257Z,1.52
2023-02-04T07:54:40.924Z,1.60
2023-02-04T07:57:07.646Z,1.80
2023-02-04T07:59:34.340Z,1.70
2023-02-04T08:02:01.865Z,1.70
2023-02-04T08:04:28.613Z,1.80
2023-02-04T08:06:55.300Z,1.60
2023-02-04T08:09:21.962Z,1.80
2023-02-04T08:11:48.656Z,1.67
2023-02-04T08:14:15.354Z,2.30
2023-02-04T08:16:42.087Z,1.90
2023-02-04T08:19:08.735Z,1.63
2023-02-04T08:21:36.386Z,1.80
2023-02-04T08:24:03.258Z,2.13
2023-02-04T08:26:32.627Z,1.98
2023-02-04T08:28:59.314Z,1.95
2023-02-04T08:31:26.064Z,3.60
2023-02-04T08:33:52.839Z,4.05
2023-02-04T08:36:19.524Z,4.70
2023-02-04T08:38:46.248Z,4.18
2023-02-04T08:41:13.230Z,4.20
2023-02-04T08:43:39.981Z,3.50
2023-02-04T08:46:06.871Z,3.60
2023-02-04T08:48:33.642Z,2.45
2023-02-04T08:51:00.323Z,2.25
2023-02-04T08:53:27.053Z,2.75
2023-02-04T08:55:53.745Z,2.50
2023-02-04T08:58:20.456Z,2.25
2023-02-04T09:00:47.292Z,2.03
2023-02-04T09:03:14.031Z,2.20
2023-02-04T09:05:40.903Z,2.15
2023-02-04T09:08:07.591Z,2.72
2023-02-04T09:10:34.602Z,2.50
2023-02-04T09:13:01.511Z,2.10
2023-02-04T09:15:28.330Z,2.28
2023-02-04T09:18:01.420Z,2.15
2023-02-04T09:20:29.510Z,2.00
2023-02-04T09:22:56.461Z,2.10
2023-02-04T09:25:23.151Z,2.00
2023-02-04T09:27:49.972Z,2.00
2023-02-04T09:30:16.891Z,2.22
2023-02-04T09:32:43.597Z,2.40
2023-02-04T09:35:10.274Z,2.00
2023-02-04T09:37:37.002Z,2.00
2023-02-04T09:40:03.970Z,2.15
2023-02-04T09:42:30.684Z,1.92
2023-02-04T09:44:57.451Z,2.17
2023-02-04T09:47:25.653Z,2.15
2023-02-04T09:49:52.573Z,2.10
2023-02-04T09:52:19.749Z,2.45
2023-02-04T09:54:46.736Z,2.25
2023-02-04T09:57:17.549Z,1.95
2023-02-04T09:59:44.990Z,2.08
2023-02-04T10:02:18.720Z,2.40
2023-02-04T10:04:45.442Z,2.47
2023-02-04T10:07:13.358Z,2.25
2023-02-04T10:09:40.508Z,2.08
2023-02-04T10:12:08.727Z,2.28
2023-02-04T10:14:35.453Z,1.80
2023-02-04T10:17:02.451Z,1.80
2023-02-04T10:19:30.756Z,1.58
2023-02-04T10:21:58.270Z,1.60
2023-02-04T10:24:26.548Z,1.50
2023-02-04T10:26:54.206Z,1.50
2023-02-04T10:29:25.977Z,1.92
2023-02-04T10:31:53.169Z,1.80
2023-02-04T10:34:39.566Z,1.65
2023-02-04T10:37:22.203Z,1.42
2023-02-04T10:39:49.833Z,1.75
2023-02-04T10:42:25.666Z,1.77
2023-02-04T10:44:52.923Z,1.25
2023-02-04T10:47:31.437Z,1.40
2023-02-04T10:50:07.553Z,1.15
2023-02-04T10:52:46.256Z,1.70
2023-02-04T10:55:21.139Z,1.40
2023-02-04T10:57:51.046Z,1.67
2023-02-04T11:03:06.617Z,1.50
2023-02-04T11:05:35.252Z,1.40
2023-02-04T11:08:20.645Z,2.05
2023-02-04T11:10:50.740Z,1.52
2023-02-04T11:13:39.120Z,1.65
2023-02-04T11:18:49.583Z,1.30
2023-02-04T11:21:34.264Z,1.52
2023-02-04T11:24:09.855Z,1.63
2023-02-04T11:27:20.004Z,1.58
2023-02-04T11:29:47.928Z,1.50
2023-02-04T11:32:36.102Z,1.40
2023-02-04T11:35:07.541Z,1.35
2023-02-04T11:37:43.289Z,1.27
2023-02-04T11:40:35.857Z,1.60
2023-02-04T11:43:10.248Z,1.30
2023-02-04T11:45:37.427Z,1.45
2023-02-04T11:48:13.556Z,1.40
2023-02-04T11:50:41.610Z,1.27
2023-02-04T11:53:12.167Z,1.58
2023-02-04T11:55:47.586Z,2.25
2023-02-04T11:58:16.687Z,1.30
2023-02-04T12:00:43.981Z,1.70
2023-02-04T12:03:30.549Z,1.70
2023-02-04T12:05:58.469Z,1.38
2023-02-04T12:08:36.639Z,1.52
2023-02-04T12:11:11.659Z,1.52
2023-02-04T12:13:53.371Z,1.40
2023-02-04T12:16:20.310Z,1.52
2023-02-04T12:18:46.874Z,1.30
2023-02-04T12:21:14.427Z,1.45
2023-02-04T12:23:42.488Z,1.10
2023-02-04T12:26:09.385Z,1.48
2023-02-04T12:28:35.876Z,1.25
2023-02-04T12:31:02.587Z,1.48
2023-02-04T12:33:29.734Z,1.40
2023-02-04T12:35:56.199Z,1.60
2023-02-04T12:38:22.728Z,1.55
2023-02-04T12:40:49.233Z,1.50
2023-02-04T12:43:15.768Z,1.65
2023-02-04T12:45:45.710Z,1.50
2023-02-04T12:48:13.652Z,1.73
2023-02-04T12:50:40.362Z,1.30
2023-02-04T12:53:07.017Z,1.13
2023-02-04T12:55:33.801Z,1.33
2023-02-04T12:58:00.419Z,1.40
2023-02-04T13:00:27.584Z,1.23
2023-02-04T13:02:59.033Z,1.25
2023-02-04T13:05:26.597Z,1.50
2023-02-04T13:07:53.266Z,1.50
2023-02-04T13:10:21.634Z,1.17
2023-02-04T13:12:48.448Z,1.45
2023-02-04T13:15:15.139Z,1.02
2023-02-04T13:17:41.943Z,1.27
2023-02-04T13:20:09.273Z,1.58
2023-02-04T13:22:35.980Z,1.48
2023-02-04T13:25:04.090Z,1.38
2023-02-04T13:27:31.844Z,1.20
2023-02-04T13:29:58.737Z,1.15
2023-02-04T13:32:25.510Z,1.25
2023-02-04T13:34:52.193Z,1.20
2023-02-04T13:37:18.915Z,1.30
2023-02-04T13:39:45.595Z,1.10
2023-02-04T13:42:12.311Z,1.38
2023-02-04T13:44:39.099Z,1.38
2023-02-04T13:47:05.743Z,1.60
2023-02-04T13:49:32.399Z,1.20
2023-02-04T13:51:58.892Z,1.60
2023-02-04T13:54:25.533Z,1.20
2023-02-04T13:56:52.186Z,1.40
2023-02-04T13:59:20.735Z,1.70
2023-02-04T14:01:47.539Z,1.38
2023-02-04T14:04:14.226Z,1.45
2023-02-04T14:06:43.548Z,1.45
2023-02-04T14:09:12.096Z,1.05
2023-02-04T14:11:39.513Z,1.23
2023-02-04T14:14:06.499Z,1.60
2023-02-04T14:16:33.091Z,1.40
2023-02-04T14:18:59.778Z,1.40
2023-02-04T14:21:26.482Z,1.40
2023-02-04T14:23:53.020Z,1.23
2023-02-04T14:26:19.511Z,1.25
2023-02-04T14:28:46.145Z,1.30
2023-02-04T14:31:12.693Z,1.50
2023-02-04T14:33:39.241Z,1.45
2023-02-04T14:36:06.020Z,1.13
2023-02-04T14:38:34.151Z,1.63
2023-02-04T14:41:01.046Z,2.33
2023-02-04T14:43:27.926Z,1.88
2023-02-04T14:45:54.538Z,1.70
2023-02-04T14:48:21.153Z,1.67
2023-02-04T14:50:47.661Z,1.45
2023-02-04T14:53:14.216Z,1.40
2023-02-04T14:55:40.722Z,2.03
2023-02-04T14:58:07.264Z,1.77
2023-02-04T15:00:34.080Z,1.90
2023-02-04T15:03:00.851Z,1.63
2023-02-04T15:05:27.356Z,1.70
2023-02-04T15:07:53.845Z,1.70
2023-02-04T15:10:21.182Z,1.88
2023-02-04T15:12:48.070Z,1.83
2023-02-04T15:15:14.841Z,1.90
2023-02-04T15:17:41.416Z,1.70
2023-02-04T15:20:08.718Z,2.55
2023-02-04T15:22:35.409Z,1.85
2023-02-04T15:25:05.083Z,1.80
2023-02-04T15:27:31.664Z,1.55
2023-02-04T15:29:58.213Z,1.85
2023-02-04T15:32:24.919Z,1.75
2023-02-04T15:34:51.492Z,1.40
2023-02-04T15:37:18.070Z,1.88
2023-02-04T15:39:44.633Z,1.60
2023-02-04T15:42:11.155Z,1.60
2023-02-04T15:44:37.863Z,1.27
2023-02-04T15:47:06.360Z,1.50
2023-02-04T15:49:33.832Z,1.52
2023-02-04T15:52:02.012Z,1.30
2023-02-04T15:54:28.880Z,1.27
2023-02-04T15:56:55.643Z,1.38
2023-02-04T15:59:22.439Z,1.52
2023-02-04T16:01:50.480Z,1.67
2023-02-04T16:04:19.851Z,1.80
2023-02-04T16:06:57.136Z,1.63
2023-02-04T16:09:25.652Z,1.95
2023-02-04T16:11:52.112Z,2.20
2023-02-04T16:14:18.624Z,2.20
2023-02-04T16:16:45.093Z,2.35
2023-02-04T16:19:11.636Z,2.30
2023-02-04T16:21:38.138Z,2.20
2023-02-04T16:24:05.002Z,2.72
2023-02-04T16:26:32.232Z,2.22
2023-02-04T16:28:58.739Z,2.50
2023-02-04T16:31:25.502Z,3.05
2023-02-04T16:33:52.170Z,3.13
2023-02-04T16:36:19.021Z,3.30
2023-02-04T16:38:45.597Z,3.60
2023-02-04T16:41:14.193Z,3.45
2023-02-04T16:43:40.808Z,3.88
2023-02-04T16:46:07.349Z,3.55
2023-02-04T16:48:36.026Z,3.00
2023-02-04T16:51:03.018Z,3.05
2023-02-04T16:53:30.804Z,3.33
2023-02-04T16:55:57.333Z,3.65
2023-02-04T16:58:23.940Z,3.25
2023-02-04T17:00:50.495Z,4.28
2023-02-04T17:03:16.997Z,4.07
2023-02-04T17:05:43.523Z,4.25
2023-02-04T17:08:12.108Z,4.65
2023-02-04T17:13:25.226Z,4.22
2023-02-04T17:15:51.728Z,3.75
2023-02-04T17:18:18.313Z,4.05
2023-02-04T17:20:44.789Z,3.65
2023-02-04T17:23:11.343Z,4.00
2023-02-04T17:25:37.839Z,3.97
2023-02-04T17:28:04.485Z,4.50
2023-02-04T17:30:31.065Z,3.80
2023-02-04T17:32:57.714Z,3.92
2023-02-04T17:35:24.204Z,4.78
2023-02-04T17:37:50.729Z,4.05
2023-02-04T17:40:17.498Z,4.50
2023-02-04T17:42:43.989Z,4.63
2023-02-04T17:45:11.614Z,5.15
2023-02-04T17:47:39.191Z,4.93
2023-02-04T17:50:07.872Z,4.93
2023-02-04T17:52:34.485Z,5.10
2023-02-04T17:55:01.899Z,4.90
2023-02-04T17:57:28.487Z,5.25
2023-02-04T17:59:55.218Z,4.57
2023-02-04T18:02:29.666Z,4.55
2023-02-04T18:05:03.013Z,4.47
2023-02-04T18:07:30.423Z,4.60
2023-02-04T18:10:10.532Z,5.53
2023-02-04T18:12:37.225Z,5.15
2023-02-04T18:15:26.429Z,4.97
2023-02-04T18:18:06.198Z,5.20
2023-02-04T18:20:32.844Z,6.45
2023-02-04T18:23:02.541Z,7.35
2023-02-04T18:25:29.718Z,6.82
2023-02-04T18:28:02.472Z,9.20
2023-02-04T18:30:29.523Z,8.13
2023-02-04T18:32:56.303Z,8.27
2023-02-04T18:35:22.945Z,7.68
2023-02-04T18:37:52.936Z,8.63
2023-02-04T18:40:27.997Z,9.60
2023-02-04T18:43:03.068Z,13.32
2023-02-04T18:45:31.871Z,16.58
2023-02-04T18:48:01.113Z,16.17
2023-02-04T18:50:33.938Z,14.05
2023-02-04T18:53:12.730Z,11.18
2023-02-04T18:55:42.364Z,9.10
2023-02-04T18:58:34.443Z,7.53
2023-02-04T19:01:24.057Z,6.93
2023-02-04T19:03:59.646Z,6.32
2023-02-04T19:06:38.295Z,6.95
2023-02-04T19:09:17.982Z,5.38
2023-02-04T19:11:47.779Z,5.28
2023-02-04T19:14:33.271Z,4.63
2023-02-04T19:17:21.509Z,5.60
2023-02-04T19:20:02.131Z,5.45
2023-02-04T19:22:43.636Z,5.20
2023-02-04T19:25:22.401Z,5.95
2023-02-04T19:27:55.791Z,5.90
2023-02-04T19:30:28.663Z,6.57
2023-02-04T19:33:01.697Z,6.13
2023-02-04T19:35:39.070Z,5.72
2023-02-04T19:38:22.786Z,5.88
2023-02-04T19:40:52.402Z,5.03
2023-02-04T19:43:30.965Z,5.47
2023-02-04T19:45:58.844Z,5.95
2023-02-04T19:48:38.283Z,5.55
2023-02-04T19:51:25.522Z,5.57
2023-02-04T19:53:59.061Z,6.18
2023-02-04T19:56:34.714Z,6.43
2023-02-04T19:59:26.991Z,6.97
2023-02-04T20:02:23.095Z,7.63
2023-02-04T20:04:53.744Z,7.65
2023-02-04T20:07:28.733Z,7.40
2023-02-04T20:10:14.233Z,8.00
2023-02-04T20:12:41.211Z,7.72
2023-02-04T20:15:16.760Z,7.47
2023-02-04T20:17:47.891Z,7.88
2023-02-04T20:20:20.660Z,9.07
2023-02-04T20:22:47.294Z,8.38
2023-02-04T20:25:19.918Z,8.82
2023-02-04T20:27:55.121Z,8.32
2023-02-04T20:30:26.658Z,9.25
2023-02-04T20:32:56.214Z,9.55
2023-02-04T20:35:22.949Z,9.05
2023-02-04T20:37:59.039Z,8.35
2023-02-04T20:43:03.897Z,7.15
2023-02-04T20:45:37.482Z,7.85
2023-02-04T20:48:16.284Z,8.10
2023-02-04T20:50:52.878Z,7.70
2023-02-04T20:53:36.318Z,7.45
2023-02-04T20:56:31.986Z,6.75
2023-02-04T20:59:32.374Z,6.97
2023-02-04T21:02:00.951Z,6.03
2023-02-04T21:04:39.381Z,6.07
2023-02-04T21:07:15.637Z,6.55
2023-02-04T21:09:42.400Z,6.40
2023-02-04T21:12:09.518Z,6.78
2023-02-04T21:14:36.351Z,6.53
2023-02-04T21:17:03.694Z,6.60
2023-02-04T21:19:30.592Z,6.22
2023-02-04T21:21:57.741Z,6.47
2023-02-04T21:24:25.931Z,6.38
2023-02-04T21:26:53.372Z,6.28
2023-02-04T21:29:20.171Z,5.38
2023-02-04T21:31:46.898Z,5.18
2023-02-04T21:34:14.710Z,5.35
2023-02-04T21:36:41.392Z,5.28
2023-02-04T21:39:09.147Z,5.03
2023-02-04T21:41:35.838Z,5.47
2023-02-04T21:44:02.577Z,5.05
2023-02-04T21:46:29.351Z,5.88
2023-02-04T21:48:56.125Z,5.50
2023-02-04T21:51:22.822Z,5.53
2023-02-04T21:53:49.512Z,6.28
2023-02-04T21:56:16.195Z,5.38
2023-02-04T21:58:42.885Z,6.10
2023-02-04T22:01:10.453Z,6.43
2023-02-04T22:03:37.264Z,6.28
2023-02-04T22:06:04.106Z,6.45
2023-02-04T22:08:30.824Z,6.22
2023-02-04T22:10:57.602Z,6.35
2023-02-04T22:13:44.278Z,6.22
2023-02-04T22:16:12.077Z,6.05
2023-02-04T22:18:38.773Z,5.70
2023-02-04T22:21:05.682Z,5.82
2023-02-04T22:23:32.366Z,5.68
2023-02-04T22:25:59.097Z,5.95
2023-02-04T22:28:25.790Z,6.38
2023-02-04T22:30:54.222Z,8.27
2023-02-04T22:33:21.107Z,7.13
2023-02-04T22:35:48.456Z,7.13
2023-02-04T22:38:15.441Z,6.30
2023-02-04T22:40:42.138Z,7.07
2023-02-04T22:43:08.832Z,6.60
2023-02-04T22:45:35.819Z,6.50
2023-02-04T22:48:02.746Z,6.35
2023-02-04T22:50:29.401Z,5.20
2023-02-04T22:52:56.159Z,5.35
2023-02-04T22:55:23.541Z,5.40
2023-02-04T22:57:50.230Z,5.22
2023-02-04T23:00:17.218Z,5.32
2023-02-04T23:02:43.896Z,5.78
2023-02-04T23:05:10.567Z,4.65
2023-02-04T23:07:37.322Z,5.25
2023-02-04T23:10:04.399Z,6.03
2023-02-04T23:12:31.087Z,5.68
2023-02-04T23:14:57.810Z,5.75
2023-02-04T23:17:24.465Z,7.13
2023-02-04T23:19:51.152Z,6.45
2023-02-04T23:22:17.755Z,7.47
2023-02-04T23:24:44.466Z,5.93
2023-02-04T23:27:11.555Z,7.18
2023-02-04T23:29:39.776Z,6.40
2023-02-04T23:32:06.826Z,5.53
2023-02-04T23:34:33.774Z,4.65
2023-02-04T23:37:00.296Z,4.75
2023-02-04T23:39:26.888Z,3.67
2023-02-04T23:41:53.531Z,3.63
2023-02-04T23:44:20.268Z,3.38
2023-02-04T23:46:46.754Z,4.05
2023-02-04T23:49:13.703Z,3.22
2023-02-04T23:51:40.222Z,3.67
2023-02-04T23:54:07.266Z,3.50
2023-02-04T23:56:34.338Z,3.75
2023-02-04T23:59:01.445Z,3.42
